sensor_id;sensor_type;location;lat;lon;timestamp;P1;durP1;ratioP1;P2;durP2;ratioP2
12980;SDS011;6555;50.468;8.480;2023-03-01T00:02:41;2.20;;;2.00;;
12980;SDS011;6555;50.468;8.480;2023-03-01T00:07:58;2.60;;;1.90;;
12980;SDS011;6555;50.468;8.480;2023-03-01T00:13:29;2.70;;;2.03;;
12980;SDS011;6555;50.468;8.480;2023-03-01T00:18:45;2.33;;;2.13;;
12980;SDS011;6555;50.468;8.480;2023-03-01T00:24:17;2.07;;;1.87;;
12980;SDS011;6555;50.468;8.480;2023-03-01T00:29:34;2.47;;;2.20;;
12980;SDS011;6555;50.468;8.480;2023-03-01T00:35:04;2.40;;;2.20;;
12980;SDS011;6555;50.468;8.480;2023-03-01T00:40:21;2.73;;;2.30;;
12980;SDS011;6555;50.468;8.480;2023-03-01T00:45:52;3.43;;;2.60;;
12980;SDS011;6555;50.468;8.480;2023-03-01T00:51:08;2.30;;;1.87;;
12980;SDS011;6555;50.468;8.480;2023-03-01T00:56:41;2.97;;;2.40;;
12980;SDS011;6555;50.468;8.480;2023-03-01T01:01:58;2.63;;;2.13;;
12980;SDS011;6555;50.468;8.480;2023-03-01T01:07:28;2.07;;;1.90;;
12980;SDS011;6555;50.468;8.480;2023-03-01T01:12:45;2.20;;;1.90;;
12980;SDS011;6555;50.468;8.480;2023-03-01T01:18:16;2.23;;;1.77;;
12980;SDS011;6555;50.468;8.480;2023-03-01T01:23:32;1.87;;;1.63;;
12980;SDS011;6555;50.468;8.480;2023-03-01T01:29:04;2.40;;;2.17;;
12980;SDS011;6555;50.468;8.480;2023-03-01T01:34:21;4.23;;;2.23;;
12980;SDS011;6555;50.468;8.480;2023-03-01T01:39:52;2.20;;;2.00;;
12980;SDS011;6555;50.468;8.480;2023-03-01T01:45:25;2.13;;;1.93;;
12980;SDS011;6555;50.468;8.480;2023-03-01T01:50:58;2.83;;;2.30;;
12980;SDS011;6555;50.468;8.480;2023-03-01T01:56:16;2.50;;;1.87;;
12980;SDS011;6555;50.468;8.480;2023-03-01T02:01:49;2.60;;;2.30;;
12980;SDS011;6555;50.468;8.480;2023-03-01T02:07:07;2.03;;;1.83;;
12980;SDS011;6555;50.468;8.480;2023-03-01T02:12:43;2.60;;;2.03;;
12980;SDS011;6555;50.468;8.480;2023-03-01T02:18:02;2.20;;;1.90;;
12980;SDS011;6555;50.468;8.480;2023-03-01T02:23:34;2.60;;;2.17;;
12980;SDS011;6555;50.468;8.480;2023-03-01T02:28:53;2.27;;;2.00;;
12980;SDS011;6555;50.468;8.480;2023-03-01T02:34:24;2.00;;;1.80;;
12980;SDS011;6555;50.468;8.480;2023-03-01T02:39:42;1.97;;;1.77;;
12980;SDS011;6555;50.468;8.480;2023-03-01T02:45:17;2.23;;;2.00;;
12980;SDS011;6555;50.468;8.480;2023-03-01T02:50:42;3.27;;;2.30;;
12980;SDS011;6555;50.468;8.480;2023-03-01T02:56:22;2.40;;;2.03;;
12980;SDS011;6555;50.468;8.480;2023-03-01T03:01:39;3.13;;;2.10;;
12980;SDS011;6555;50.468;8.480;2023-03-01T03:07:10;3.73;;;2.90;;
12980;SDS011;6555;50.468;8.480;2023-03-01T03:12:26;2.20;;;2.00;;
12980;SDS011;6555;50.468;8.480;2023-03-01T03:17:58;2.23;;;1.93;;
12980;SDS011;6555;50.468;8.480;2023-03-01T03:23:15;3.23;;;1.90;;
12980;SDS011;6555;50.468;8.480;2023-03-01T03:28:45;2.30;;;2.10;;
12980;SDS011;6555;50.468;8.480;2023-03-01T03:34:02;2.33;;;2.07;;
12980;SDS011;6555;50.468;8.480;2023-03-01T03:39:47;1.97;;;1.87;;
12980;SDS011;6555;50.468;8.480;2023-03-01T03:45:17;2.17;;;1.97;;
12980;SDS011;6555;50.468;8.480;2023-03-01T03:50:35;2.37;;;1.87;;
12980;SDS011;6555;50.468;8.480;2023-03-01T03:56:06;1.83;;;1.73;;
12980;SDS011;6555;50.468;8.480;2023-03-01T04:01:23;2.57;;;2.13;;
12980;SDS011;6555;50.468;8.480;2023-03-01T04:06:54;2.50;;;2.20;;
12980;SDS011;6555;50.468;8.480;2023-03-01T04:12:11;2.30;;;2.10;;
12980;SDS011;6555;50.468;8.480;2023-03-01T04:17:44;3.33;;;2.50;;
12980;SDS011;6555;50.468;8.480;2023-03-01T04:23:05;3.23;;;2.43;;
12980;SDS011;6555;50.468;8.480;2023-03-01T04:28:37;2.53;;;2.20;;
12980;SDS011;6555;50.468;8.480;2023-03-01T04:33:57;2.37;;;2.07;;
12980;SDS011;6555;50.468;8.480;2023-03-01T04:39:28;3.50;;;3.20;;
12980;SDS011;6555;50.468;8.480;2023-03-01T04:45:07;3.03;;;2.37;;
12980;SDS011;6555;50.468;8.480;2023-03-01T04:50:27;2.83;;;2.17;;
12980;SDS011;6555;50.468;8.480;2023-03-01T04:55:58;2.97;;;2.20;;
12980;SDS011;6555;50.468;8.480;2023-03-01T05:01:16;3.20;;;2.53;;
12980;SDS011;6555;50.468;8.480;2023-03-01T05:06:47;3.33;;;2.10;;
12980;SDS011;6555;50.468;8.480;2023-03-01T05:12:04;2.53;;;2.33;;
12980;SDS011;6555;50.468;8.480;2023-03-01T05:17:35;2.87;;;2.40;;
12980;SDS011;6555;50.468;8.480;2023-03-01T05:22:51;3.53;;;2.03;;
12980;SDS011;6555;50.468;8.480;2023-03-01T05:28:27;2.53;;;2.33;;
12980;SDS011;6555;50.468;8.480;2023-03-01T05:33:44;3.20;;;2.53;;
12980;SDS011;6555;50.468;8.480;2023-03-01T05:39:14;2.53;;;2.33;;
12980;SDS011;6555;50.468;8.480;2023-03-01T05:44:45;3.00;;;2.43;;
12980;SDS011;6555;50.468;8.480;2023-03-01T05:50:02;2.37;;;2.10;;
12980;SDS011;6555;50.468;8.480;2023-03-01T05:55:32;2.93;;;2.53;;
12980;SDS011;6555;50.468;8.480;2023-03-01T06:00:50;2.90;;;2.43;;
12980;SDS011;6555;50.468;8.480;2023-03-01T06:06:21;2.33;;;2.13;;
12980;SDS011;6555;50.468;8.480;2023-03-01T06:11:38;3.07;;;2.43;;
12980;SDS011;6555;50.468;8.480;2023-03-01T06:17:09;3.00;;;2.43;;
12980;SDS011;6555;50.468;8.480;2023-03-01T06:22:25;3.93;;;2.80;;
12980;SDS011;6555;50.468;8.480;2023-03-01T06:27:56;3.93;;;2.70;;
12980;SDS011;6555;50.468;8.480;2023-03-01T06:33:13;3.27;;;2.63;;
12980;SDS011;6555;50.468;8.480;2023-03-01T06:38:45;3.03;;;2.70;;
12980;SDS011;6555;50.468;8.480;2023-03-01T06:44:15;3.17;;;2.83;;
12980;SDS011;6555;50.468;8.480;2023-03-01T06:49:32;2.63;;;2.43;;
12980;SDS011;6555;50.468;8.480;2023-03-01T06:55:02;3.60;;;2.70;;
12980;SDS011;6555;50.468;8.480;2023-03-01T07:00:19;4.30;;;2.90;;
12980;SDS011;6555;50.468;8.480;2023-03-01T07:05:51;2.23;;;2.03;;
12980;SDS011;6555;50.468;8.480;2023-03-01T07:11:08;3.20;;;2.83;;
12980;SDS011;6555;50.468;8.480;2023-03-01T07:16:38;3.80;;;3.03;;
12980;SDS011;6555;50.468;8.480;2023-03-01T07:21:55;4.37;;;3.27;;
12980;SDS011;6555;50.468;8.480;2023-03-01T07:27:26;4.83;;;3.37;;
12980;SDS011;6555;50.468;8.480;2023-03-01T07:32:42;7.07;;;3.70;;
12980;SDS011;6555;50.468;8.480;2023-03-01T07:38:13;6.43;;;4.57;;
12980;SDS011;6555;50.468;8.480;2023-03-01T07:43:30;6.20;;;4.57;;
12980;SDS011;6555;50.468;8.480;2023-03-01T07:49:01;5.50;;;4.17;;
12980;SDS011;6555;50.468;8.480;2023-03-01T07:54:19;5.53;;;3.87;;
12980;SDS011;6555;50.468;8.480;2023-03-01T07:59:50;6.10;;;4.77;;
12980;SDS011;6555;50.468;8.480;2023-03-01T08:05:12;6.20;;;4.90;;
12980;SDS011;6555;50.468;8.480;2023-03-01T08:10:44;6.67;;;4.63;;
12980;SDS011;6555;50.468;8.480;2023-03-01T08:16:02;4.60;;;4.10;;
12980;SDS011;6555;50.468;8.480;2023-03-01T08:21:33;6.40;;;5.00;;
12980;SDS011;6555;50.468;8.480;2023-03-01T08:26:51;6.80;;;5.13;;
12980;SDS011;6555;50.468;8.480;2023-03-01T08:32:24;6.33;;;4.70;;
12980;SDS011;6555;50.468;8.480;2023-03-01T08:37:47;5.90;;;4.37;;
12980;SDS011;6555;50.468;8.480;2023-03-01T08:43:18;5.73;;;4.63;;
12980;SDS011;6555;50.468;8.480;2023-03-01T08:48:35;6.40;;;4.63;;
12980;SDS011;6555;50.468;8.480;2023-03-01T08:54:05;5.87;;;4.27;;
12980;SDS011;6555;50.468;8.480;2023-03-01T08:59:25;6.60;;;4.83;;
12980;SDS011;6555;50.468;8.480;2023-03-01T09:04:59;6.70;;;4.33;;
12980;SDS011;6555;50.468;8.480;2023-03-01T09:10:15;4.90;;;4.07;;
12980;SDS011;6555;50.468;8.480;2023-03-01T09:15:46;6.83;;;4.90;;
12980;SDS011;6555;50.468;8.480;2023-03-01T09:21:02;4.87;;;4.27;;
12980;SDS011;6555;50.468;8.480;2023-03-01T09:26:52;6.53;;;4.60;;
12980;SDS011;6555;50.468;8.480;2023-03-01T09:32:10;5.70;;;4.30;;
12980;SDS011;6555;50.468;8.480;2023-03-01T09:37:40;5.43;;;4.27;;
12980;SDS011;6555;50.468;8.480;2023-03-01T09:43:13;5.23;;;3.90;;
12980;SDS011;6555;50.468;8.480;2023-03-01T09:48:38;5.37;;;4.07;;
12980;SDS011;6555;50.468;8.480;2023-03-01T09:54:11;7.37;;;4.53;;
12980;SDS011;6555;50.468;8.480;2023-03-01T09:59:28;5.87;;;4.70;;
12980;SDS011;6555;50.468;8.480;2023-03-01T10:05:09;6.27;;;4.40;;
12980;SDS011;6555;50.468;8.480;2023-03-01T10:10:43;6.93;;;5.00;;
12980;SDS011;6555;50.468;8.480;2023-03-01T10:16:16;4.73;;;3.90;;
12980;SDS011;6555;50.468;8.480;2023-03-01T10:21:38;6.00;;;4.20;;
12980;SDS011;6555;50.468;8.480;2023-03-01T10:27:15;6.57;;;4.53;;
12980;SDS011;6555;50.468;8.480;2023-03-01T10:32:36;4.40;;;3.87;;
12980;SDS011;6555;50.468;8.480;2023-03-01T10:38:08;5.93;;;4.07;;
12980;SDS011;6555;50.468;8.480;2023-03-01T10:43:27;5.07;;;3.93;;
12980;SDS011;6555;50.468;8.480;2023-03-01T10:49:12;4.50;;;3.80;;
12980;SDS011;6555;50.468;8.480;2023-03-01T10:54:32;7.23;;;4.90;;
12980;SDS011;6555;50.468;8.480;2023-03-01T11:00:20;5.33;;;3.90;;
12980;SDS011;6555;50.468;8.480;2023-03-01T11:05:51;5.23;;;4.30;;
12980;SDS011;6555;50.468;8.480;2023-03-01T11:11:31;4.67;;;4.17;;
12980;SDS011;6555;50.468;8.480;2023-03-01T11:16:49;4.87;;;4.17;;
12980;SDS011;6555;50.468;8.480;2023-03-01T11:22:28;5.50;;;4.10;;
12980;SDS011;6555;50.468;8.480;2023-03-01T11:27:47;4.70;;;3.87;;
12980;SDS011;6555;50.468;8.480;2023-03-01T11:33:19;5.87;;;4.33;;
12980;SDS011;6555;50.468;8.480;2023-03-01T11:38:46;6.47;;;4.43;;
12980;SDS011;6555;50.468;8.480;2023-03-01T11:44:19;5.37;;;3.93;;
12980;SDS011;6555;50.468;8.480;2023-03-01T11:49:43;5.77;;;4.73;;
12980;SDS011;6555;50.468;8.480;2023-03-01T11:55:47;4.77;;;4.10;;
12980;SDS011;6555;50.468;8.480;2023-03-01T12:01:21;6.33;;;4.80;;
12980;SDS011;6555;50.468;8.480;2023-03-01T12:07:01;5.00;;;4.47;;
12980;SDS011;6555;50.468;8.480;2023-03-01T12:12:29;5.23;;;4.00;;
12980;SDS011;6555;50.468;8.480;2023-03-01T12:18:18;4.97;;;4.43;;
12980;SDS011;6555;50.468;8.480;2023-03-01T12:23:50;4.80;;;4.03;;
12980;SDS011;6555;50.468;8.480;2023-03-01T12:29:42;5.07;;;4.27;;
12980;SDS011;6555;50.468;8.480;2023-03-01T12:41:23;5.90;;;4.53;;
12980;SDS011;6555;50.468;8.480;2023-03-01T12:46:56;5.63;;;4.77;;
12980;SDS011;6555;50.468;8.480;2023-03-01T12:52:38;5.57;;;4.70;;
12980;SDS011;6555;50.468;8.480;2023-03-01T12:58:01;6.60;;;4.60;;
12980;SDS011;6555;50.468;8.480;2023-03-01T13:03:38;6.30;;;5.00;;
12980;SDS011;6555;50.468;8.480;2023-03-01T13:09:11;5.97;;;4.80;;
12980;SDS011;6555;50.468;8.480;2023-03-01T13:14:49;5.37;;;4.60;;
12980;SDS011;6555;50.468;8.480;2023-03-01T13:37:32;5.63;;;4.53;;
12980;SDS011;6555;50.468;8.480;2023-03-01T13:42:52;6.37;;;4.73;;
12980;SDS011;6555;50.468;8.480;2023-03-01T13:48:22;5.10;;;4.60;;
12980;SDS011;6555;50.468;8.480;2023-03-01T13:53:42;5.50;;;4.17;;
12980;SDS011;6555;50.468;8.480;2023-03-01T13:59:16;6.13;;;3.90;;
12980;SDS011;6555;50.468;8.480;2023-03-01T14:04:33;7.23;;;5.00;;
12980;SDS011;6555;50.468;8.480;2023-03-01T14:10:03;5.40;;;4.00;;
12980;SDS011;6555;50.468;8.480;2023-03-01T14:15:31;5.67;;;4.10;;
12980;SDS011;6555;50.468;8.480;2023-03-01T14:21:07;5.43;;;4.20;;
12980;SDS011;6555;50.468;8.480;2023-03-01T14:26:23;4.33;;;3.83;;
12980;SDS011;6555;50.468;8.480;2023-03-01T14:31:54;5.20;;;4.17;;
12980;SDS011;6555;50.468;8.480;2023-03-01T14:37:16;5.37;;;4.17;;
12980;SDS011;6555;50.468;8.480;2023-03-01T14:42:50;5.13;;;4.00;;
12980;SDS011;6555;50.468;8.480;2023-03-01T14:48:10;6.93;;;4.43;;
12980;SDS011;6555;50.468;8.480;2023-03-01T14:53:41;4.97;;;4.00;;
12980;SDS011;6555;50.468;8.480;2023-03-01T14:59:12;6.63;;;4.30;;
12980;SDS011;6555;50.468;8.480;2023-03-01T15:04:30;4.37;;;3.50;;
12980;SDS011;6555;50.468;8.480;2023-03-01T15:10:00;4.60;;;3.50;;
12980;SDS011;6555;50.468;8.480;2023-03-01T15:15:19;4.43;;;3.60;;
12980;SDS011;6555;50.468;8.480;2023-03-01T15:20:53;4.73;;;3.70;;
12980;SDS011;6555;50.468;8.480;2023-03-01T15:26:20;4.40;;;3.10;;
12980;SDS011;6555;50.468;8.480;2023-03-01T15:31:54;3.93;;;3.47;;
12980;SDS011;6555;50.468;8.480;2023-03-01T15:48:57;5.93;;;3.67;;
12980;SDS011;6555;50.468;8.480;2023-03-01T15:54:29;3.33;;;2.70;;
12980;SDS011;6555;50.468;8.480;2023-03-01T15:59:46;3.20;;;2.70;;
12980;SDS011;6555;50.468;8.480;2023-03-01T16:05:17;4.00;;;2.70;;
12980;SDS011;6555;50.468;8.480;2023-03-01T16:10:38;3.27;;;2.57;;
12980;SDS011;6555;50.468;8.480;2023-03-01T16:16:11;3.40;;;2.70;;
12980;SDS011;6555;50.468;8.480;2023-03-01T16:21:30;4.20;;;2.70;;
12980;SDS011;6555;50.468;8.480;2023-03-01T16:26:55;3.33;;;2.73;;
12980;SDS011;6555;50.468;8.480;2023-03-01T16:32:18;2.70;;;2.47;;
12980;SDS011;6555;50.468;8.480;2023-03-01T16:37:34;3.13;;;2.47;;
12980;SDS011;6555;50.468;8.480;2023-03-01T16:43:16;2.80;;;2.50;;
12980;SDS011;6555;50.468;8.480;2023-03-01T16:48:32;3.20;;;2.70;;
12980;SDS011;6555;50.468;8.480;2023-03-01T16:54:02;3.93;;;2.70;;
12980;SDS011;6555;50.468;8.480;2023-03-01T16:59:21;4.37;;;2.57;;
12980;SDS011;6555;50.468;8.480;2023-03-01T17:04:51;7.13;;;3.03;;
12980;SDS011;6555;50.468;8.480;2023-03-01T17:10:09;3.60;;;2.83;;
12980;SDS011;6555;50.468;8.480;2023-03-01T17:15:41;3.97;;;2.67;;
12980;SDS011;6555;50.468;8.480;2023-03-01T17:20:58;4.10;;;2.83;;
12980;SDS011;6555;50.468;8.480;2023-03-01T17:26:29;6.83;;;3.10;;
12980;SDS011;6555;50.468;8.480;2023-03-01T17:31:47;3.30;;;2.67;;
12980;SDS011;6555;50.468;8.480;2023-03-01T17:37:17;3.57;;;2.53;;
12980;SDS011;6555;50.468;8.480;2023-03-01T17:42:34;3.10;;;2.40;;
12980;SDS011;6555;50.468;8.480;2023-03-01T17:48:06;2.37;;;2.10;;
12980;SDS011;6555;50.468;8.480;2023-03-01T17:53:22;2.97;;;2.30;;
12980;SDS011;6555;50.468;8.480;2023-03-01T17:58:52;3.80;;;2.20;;
12980;SDS011;6555;50.468;8.480;2023-03-01T18:04:11;3.00;;;2.40;;
12980;SDS011;6555;50.468;8.480;2023-03-01T18:09:41;2.63;;;2.37;;
12980;SDS011;6555;50.468;8.480;2023-03-01T18:14:57;2.60;;;2.30;;
12980;SDS011;6555;50.468;8.480;2023-03-01T18:20:29;3.90;;;2.33;;
12980;SDS011;6555;50.468;8.480;2023-03-01T18:25:46;3.43;;;2.33;;
12980;SDS011;6555;50.468;8.480;2023-03-01T18:31:17;2.93;;;2.53;;
12980;SDS011;6555;50.468;8.480;2023-03-01T18:36:37;2.50;;;2.03;;
12980;SDS011;6555;50.468;8.480;2023-03-01T18:42:23;4.07;;;2.00;;
12980;SDS011;6555;50.468;8.480;2023-03-01T18:47:39;3.03;;;2.10;;
12980;SDS011;6555;50.468;8.480;2023-03-01T18:53:12;2.77;;;1.97;;
12980;SDS011;6555;50.468;8.480;2023-03-01T18:58:28;2.43;;;2.23;;
12980;SDS011;6555;50.468;8.480;2023-03-01T19:03:58;4.43;;;2.87;;
12980;SDS011;6555;50.468;8.480;2023-03-01T19:09:17;3.20;;;2.60;;
12980;SDS011;6555;50.468;8.480;2023-03-01T19:14:47;2.90;;;2.40;;
12980;SDS011;6555;50.468;8.480;2023-03-01T19:20:05;2.60;;;2.33;;
12980;SDS011;6555;50.468;8.480;2023-03-01T19:25:38;3.30;;;2.40;;
12980;SDS011;6555;50.468;8.480;2023-03-01T19:30:58;3.80;;;2.97;;
12980;SDS011;6555;50.468;8.480;2023-03-01T19:36:28;2.77;;;2.37;;
12980;SDS011;6555;50.468;8.480;2023-03-01T19:41:48;3.70;;;3.03;;
12980;SDS011;6555;50.468;8.480;2023-03-01T19:47:18;3.13;;;2.40;;
12980;SDS011;6555;50.468;8.480;2023-03-01T19:52:34;3.27;;;2.37;;
12980;SDS011;6555;50.468;8.480;2023-03-01T19:58:06;2.50;;;2.27;;
12980;SDS011;6555;50.468;8.480;2023-03-01T20:03:31;4.23;;;2.53;;
12980;SDS011;6555;50.468;8.480;2023-03-01T20:09:04;2.73;;;2.17;;
12980;SDS011;6555;50.468;8.480;2023-03-01T20:14:30;3.17;;;2.10;;
12980;SDS011;6555;50.468;8.480;2023-03-01T20:19:59;2.20;;;1.97;;
12980;SDS011;6555;50.468;8.480;2023-03-01T20:25:15;2.23;;;1.90;;
12980;SDS011;6555;50.468;8.480;2023-03-01T20:30:47;2.87;;;2.00;;
12980;SDS011;6555;50.468;8.480;2023-03-01T20:36:03;2.37;;;1.90;;
12980;SDS011;6555;50.468;8.480;2023-03-01T20:41:33;2.70;;;1.83;;
12980;SDS011;6555;50.468;8.480;2023-03-01T20:46:51;2.80;;;2.20;;
12980;SDS011;6555;50.468;8.480;2023-03-01T20:52:20;3.17;;;2.30;;
12980;SDS011;6555;50.468;8.480;2023-03-01T20:57:48;2.33;;;1.97;;
12980;SDS011;6555;50.468;8.480;2023-03-01T21:03:20;2.97;;;2.00;;
12980;SDS011;6555;50.468;8.480;2023-03-01T21:08:36;3.27;;;2.27;;
12980;SDS011;6555;50.468;8.480;2023-03-01T21:14:07;2.53;;;1.90;;
12980;SDS011;6555;50.468;8.480;2023-03-01T21:19:27;4.37;;;2.40;;
12980;SDS011;6555;50.468;8.480;2023-03-01T21:24:56;2.53;;;2.33;;
12980;SDS011;6555;50.468;8.480;2023-03-01T21:30:13;3.00;;;2.43;;
12980;SDS011;6555;50.468;8.480;2023-03-01T21:35:45;3.00;;;2.23;;
12980;SDS011;6555;50.468;8.480;2023-03-01T21:41:08;3.10;;;2.43;;
12980;SDS011;6555;50.468;8.480;2023-03-01T21:54:00;2.43;;;2.23;;
12980;SDS011;6555;50.468;8.480;2023-03-01T21:59:18;2.80;;;2.30;;
12980;SDS011;6555;50.468;8.480;2023-03-01T22:04:50;3.63;;;2.67;;
12980;SDS011;6555;50.468;8.480;2023-03-01T22:10:12;2.70;;;2.10;;
12980;SDS011;6555;50.468;8.480;2023-03-01T22:15:47;3.07;;;2.40;;
12980;SDS011;6555;50.468;8.480;2023-03-01T22:21:04;3.80;;;2.40;;
12980;SDS011;6555;50.468;8.480;2023-03-01T22:26:36;2.40;;;2.20;;
12980;SDS011;6555;50.468;8.480;2023-03-01T22:31:55;3.00;;;2.30;;
12980;SDS011;6555;50.468;8.480;2023-03-01T22:37:26;3.47;;;2.60;;
12980;SDS011;6555;50.468;8.480;2023-03-01T22:42:44;3.30;;;2.43;;
12980;SDS011;6555;50.468;8.480;2023-03-01T22:48:14;4.03;;;2.40;;
12980;SDS011;6555;50.468;8.480;2023-03-01T22:53:30;3.30;;;2.30;;
12980;SDS011;6555;50.468;8.480;2023-03-01T22:59:02;3.87;;;3.00;;
12980;SDS011;6555;50.468;8.480;2023-03-01T23:04:22;3.27;;;2.70;;
12980;SDS011;6555;50.468;8.480;2023-03-01T23:09:52;3.40;;;2.70;;
12980;SDS011;6555;50.468;8.480;2023-03-01T23:15:10;2.80;;;2.50;;
12980;SDS011;6555;50.468;8.480;2023-03-01T23:20:41;3.57;;;2.10;;
12980;SDS011;6555;50.468;8.480;2023-03-01T23:25:57;2.47;;;2.13;;
12980;SDS011;6555;50.468;8.480;2023-03-01T23:31:29;4.50;;;2.27;;
12980;SDS011;6555;50.468;8.480;2023-03-01T23:36:45;3.33;;;2.40;;
12980;SDS011;6555;50.468;8.480;2023-03-01T23:42:15;3.67;;;2.93;;
12980;SDS011;6555;50.468;8.480;2023-03-01T23:47:33;2.80;;;2.30;;
12980;SDS011;6555;50.468;8.480;2023-03-01T23:53:04;3.00;;;2.27;;
12980;SDS011;6555;50.468;8.480;2023-03-01T23:58:21;2.37;;;2.07;;
